Terminal Aerodrome Forecast
Issued by NWS

Home | Current Version | Previous Version | Text Only | Print | Product List | Glossary On
Versions: 1 2 3 4 5 6 7 8 9 10 11 12
000
FTUS44 KSJT 252335
TAFBBD
TAF
KBBD 252335Z 2600/2624 09006KT P6SM VCSH SCT060 BKN250
     FM260600 VRB04KT P6SM VCSH SCT050 BKN100
     FM261800 09006KT P6SM VCSH SCT050 BKN250
      AMD NOT SKED=

USA.gov is the U.S. government's official web portal to all federal, state and local government web resources and services.